Time;durP1;ratioP1;P1;durP2;ratioP2;P2;SDS_P1;SDS_P2;PMS_P1;PMS_P2;Temp;Humidity;BMP_temperature;BMP_pressure;BME280_temperature;BME280_humidity;BME280_pressure;Samples;Min_cycle;Max_cycle;Signal;HPM_P1;HPM_P2
2022/10/20 00:01:12;;;;;;;6.38;2.83;;;7.10;99.90;;;;;;5060669;28;20155;-89
2022/10/20 00:03:38;;;;;;;7.75;2.33;;;7.10;99.90;;;;;;5059041;28;20481;-88
2022/10/20 00:06:11;;;;;;;4.85;2.42;;;7.00;99.90;;;;;;5051817;28;20036;-89
2022/10/20 00:08:41;;;;;;;2.10;1.90;;;7.00;99.90;;;;;;5067066;28;20040;-89
2022/10/20 00:11:08;;;;;;;4.85;2.70;;;6.90;99.90;;;;;;5054099;28;20116;-89
2022/10/20 00:13:35;;;;;;;4.40;2.40;;;6.80;99.90;;;;;;5058706;28;20062;-89
2022/10/20 00:16:00;;;;;;;6.07;2.70;;;6.80;99.90;;;;;;5055645;28;20037;-87
2022/10/20 00:18:26;;;;;;;3.63;2.20;;;6.80;99.90;;;;;;5059133;28;20036;-88
2022/10/20 00:20:52;;;;;;;4.15;2.35;;;6.70;99.90;;;;;;5046840;28;20107;-88
2022/10/20 00:23:18;;;;;;;3.83;2.50;;;6.60;99.90;;;;;;5059686;28;20032;-88
2022/10/20 00:25:44;;;;;;;4.82;2.15;;;6.60;99.90;;;;;;5048490;28;20025;-89
2022/10/20 00:28:09;;;;;;;5.80;2.20;;;6.60;99.90;;;;;;5055778;28;20595;-88
2022/10/20 00:30:35;;;;;;;5.60;2.10;;;6.50;99.90;;;;;;5051665;28;20079;-89
2022/10/20 00:33:02;;;;;;;2.83;1.80;;;6.50;99.90;;;;;;5058603;28;20036;-89
2022/10/20 00:35:29;;;;;;;5.13;1.98;;;6.40;99.90;;;;;;5049844;28;20108;-89
2022/10/20 00:37:55;;;;;;;4.07;1.80;;;6.40;99.90;;;;;;5065325;28;20082;-89
2022/10/20 00:40:21;;;;;;;5.05;2.05;;;6.40;99.90;;;;;;5052459;28;20519;-88
2022/10/20 00:42:47;;;;;;;4.35;2.25;;;6.40;99.90;;;;;;5058753;28;20155;-89
2022/10/20 00:45:15;;;;;;;5.88;1.95;;;6.40;99.90;;;;;;5051255;28;20021;-89
2022/10/20 00:47:50;;;;;;;1.88;1.75;;;6.40;99.90;;;;;;5061961;28;20108;-89
2022/10/20 00:50:22;;;;;;;2.88;1.65;;;6.40;99.90;;;;;;5055687;28;20370;-87
2022/10/20 00:52:48;;;;;;;2.13;1.50;;;6.30;99.90;;;;;;5047484;28;20037;-89
2022/10/20 00:55:23;;;;;;;3.80;2.45;;;6.30;99.90;;;;;;5051621;28;20039;-88
2022/10/20 00:57:51;;;;;;;3.85;1.38;;;6.30;99.90;;;;;;5055301;28;20040;-89
2022/10/20 01:00:17;;;;;;;6.28;1.35;;;6.30;99.90;;;;;;5056405;28;20108;-88
2022/10/20 01:02:46;;;;;;;4.53;1.83;;;6.30;99.90;;;;;;5049643;28;20029;-88
2022/10/20 01:05:12;;;;;;;3.35;1.52;;;6.30;99.90;;;;;;5042498;28;20234;-89
2022/10/20 01:07:41;;;;;;;3.88;1.65;;;6.30;99.90;;;;;;5051543;28;20029;-89
2022/10/20 01:10:07;;;;;;;2.88;1.50;;;6.30;99.90;;;;;;5056158;28;20032;-89
2022/10/20 01:13:12;;;;;;;4.53;1.55;;;6.20;99.90;;;;;;5051706;28;20361;-89
2022/10/20 01:16:19;;;;;;;4.90;1.70;;;6.30;99.90;;;;;;5029628;28;20075;-88
2022/10/20 01:18:50;;;;;;;2.20;1.52;;;6.20;99.90;;;;;;5046833;28;20481;-88
2022/10/20 01:21:15;;;;;;;4.57;1.63;;;6.10;99.90;;;;;;5047926;28;20034;-88
2022/10/20 01:24:05;;;;;;;3.05;1.27;;;6.10;99.90;;;;;;5044529;28;20462;-88
2022/10/20 01:27:06;;;;;;;2.22;1.70;;;6.00;99.90;;;;;;5040592;28;20037;-89
2022/10/20 01:29:53;;;;;;;3.40;1.40;;;6.00;99.90;;;;;;5048578;28;20100;-88
2022/10/20 01:32:34;;;;;;;9.48;1.60;;;6.00;99.90;;;;;;5052233;28;20021;-89
2022/10/20 01:35:16;;;;;;;2.03;1.17;;;6.00;99.90;;;;;;5040376;28;20041;-88
2022/10/20 01:37:44;;;;;;;3.50;1.45;;;5.90;99.90;;;;;;5041732;28;20128;-88
2022/10/20 01:40:35;;;;;;;3.55;1.23;;;5.90;99.90;;;;;;5046290;28;20040;-89
2022/10/20 01:43:06;;;;;;;5.40;2.05;;;5.90;99.90;;;;;;5062666;28;20036;-87
2022/10/20 01:45:35;;;;;;;2.38;1.35;;;5.80;99.90;;;;;;5042857;28;20021;-87
2022/10/20 01:48:04;;;;;;;2.35;1.30;;;5.80;99.90;;;;;;5041918;28;20037;-88
2022/10/20 01:50:33;;;;;;;4.18;1.52;;;5.80;99.90;;;;;;5050954;28;20032;-88
2022/10/20 01:52:59;;;;;;;3.25;1.55;;;5.80;99.90;;;;;;5049998;28;20036;-89
2022/10/20 01:55:25;;;;;;;6.97;1.70;;;5.80;99.90;;;;;;5054116;28;20063;-89
2022/10/20 01:58:28;;;;;;;3.50;1.58;;;5.80;99.90;;;;;;5050744;28;20028;-89
2022/10/20 02:01:03;;;;;;;5.47;1.70;;;5.80;99.90;;;;;;5044899;28;20489;-88
2022/10/20 02:04:04;;;;;;;;;;;5.80;99.90;;;;;;5056165;28;20503;-87
2022/10/20 02:07:04;;;;;;;3.83;1.42;;;5.80;99.90;;;;;;4986234;28;19960;-87
2022/10/20 02:09:34;;;;;;;5.38;1.48;;;5.70;99.90;;;;;;5058232;28;20041;-88
2022/10/20 02:12:12;;;;;;;2.95;1.67;;;5.70;99.90;;;;;;5051583;28;20033;-87
2022/10/20 02:14:41;;;;;;;4.95;1.67;;;5.70;99.90;;;;;;5049146;28;20092;-88
2022/10/20 02:17:11;;;;;;;3.05;1.60;;;5.70;99.90;;;;;;5044731;28;20575;-89
2022/10/20 02:19:41;;;;;;;7.63;1.42;;;5.70;99.90;;;;;;5054619;28;20033;-87
2022/10/20 02:22:08;;;;;;;2.30;1.30;;;5.60;99.90;;;;;;5047458;28;20032;-88
2022/10/20 02:24:42;;;;;;;1.40;1.30;;;5.60;99.90;;;;;;5056375;28;20028;-88
2022/10/20 02:27:13;;;;;;;2.80;1.20;;;5.70;99.90;;;;;;5044678;28;20527;-88
2022/10/20 02:29:51;;;;;;;3.33;1.50;;;5.70;99.90;;;;;;5051714;28;20033;-88
2022/10/20 02:32:17;;;;;;;5.38;1.75;;;5.70;99.90;;;;;;5046003;28;20103;-86
2022/10/20 02:34:47;;;;;;;2.67;1.30;;;5.60;99.90;;;;;;5050645;28;20028;-87
2022/10/20 02:37:12;;;;;;;2.63;1.38;;;5.60;99.90;;;;;;5050257;28;20052;-89
2022/10/20 02:39:41;;;;;;;2.55;1.40;;;5.60;99.90;;;;;;5056371;28;20112;-88
2022/10/20 02:42:06;;;;;;;3.78;1.45;;;5.60;99.90;;;;;;5057844;28;20028;-89
2022/10/20 02:44:32;;;;;;;1.52;1.42;;;5.60;99.90;;;;;;5053289;28;20112;-88
2022/10/20 02:46:58;;;;;;;1.73;1.45;;;5.60;99.90;;;;;;5052484;28;20041;-88
2022/10/20 02:49:24;;;;;;;2.90;1.75;;;5.70;99.90;;;;;;5048347;28;20068;-88
2022/10/20 02:51:50;;;;;;;2.75;1.80;;;5.70;99.90;;;;;;5054222;28;20077;-88
2022/10/20 02:54:16;;;;;;;2.90;1.50;;;5.70;99.90;;;;;;5063067;28;20505;-86
2022/10/20 02:56:41;;;;;;;7.10;1.92;;;5.80;99.90;;;;;;5056788;28;20043;-88
2022/10/20 02:59:12;;;;;;;1.80;1.50;;;5.80;99.90;;;;;;5055858;28;20041;-89
2022/10/20 03:01:38;;;;;;;3.92;1.70;;;5.80;99.90;;;;;;5037518;28;20043;-89
2022/10/20 03:04:04;;;;;;;7.15;1.58;;;5.80;99.90;;;;;;5056843;28;20025;-88
2022/10/20 03:06:29;;;;;;;3.20;1.48;;;5.80;99.90;;;;;;5049657;28;20025;-88
2022/10/20 03:08:55;;;;;;;4.75;1.65;;;5.80;99.90;;;;;;5063423;28;20036;-89
2022/10/20 03:11:20;;;;;;;1.30;1.20;;;5.90;99.90;;;;;;5048687;28;20533;-88
2022/10/20 03:13:46;;;;;;;8.45;3.25;;;5.90;99.90;;;;;;5058324;28;20024;-87
2022/10/20 03:16:12;;;;;;;3.58;1.77;;;5.80;99.90;;;;;;5052686;28;20037;-88
2022/10/20 03:18:37;;;;;;;5.47;2.67;;;5.80;99.90;;;;;;5058606;28;20094;-87
2022/10/20 03:21:03;;;;;;;6.13;2.53;;;5.90;99.90;;;;;;5055786;28;20045;-88
2022/10/20 03:23:28;;;;;;;6.50;2.90;;;6.00;99.90;;;;;;5055140;28;20027;-87
2022/10/20 03:26:04;;;;;;;3.70;2.28;;;6.00;99.90;;;;;;5052463;28;20546;-87
2022/10/20 03:28:30;;;;;;;;;;;6.00;99.90;;;;;;5048801;28;20098;-86
2022/10/20 03:30:56;;;;;;;7.97;2.67;;;6.00;99.90;;;;;;5051613;28;19995;-86
2022/10/20 03:33:21;;;;;;;3.72;2.28;;;6.00;99.90;;;;;;5047108;28;20080;-88
2022/10/20 03:35:51;;;;;;;6.32;2.45;;;5.90;99.90;;;;;;5052256;28;20036;-89
2022/10/20 03:38:54;;;;;;;9.60;2.00;;;5.90;99.90;;;;;;5040826;28;20080;-88
2022/10/20 03:41:44;;;;;;;8.50;2.45;;;5.90;99.90;;;;;;5044240;28;20571;-88
2022/10/20 03:44:32;;;;;;;8.18;2.88;;;5.80;99.90;;;;;;5049195;28;20044;-88
2022/10/20 03:47:14;;;;;;;6.35;3.50;;;5.80;99.90;;;;;;5059399;28;20036;-88
2022/10/20 03:50:01;;;;;;;8.10;3.33;;;5.80;99.90;;;;;;5047988;28;20026;-88
2022/10/20 03:52:30;;;;;;;8.27;2.88;;;5.80;99.90;;;;;;5039707;28;20044;-88
2022/10/20 03:55:29;;;;;;;4.25;2.42;;;5.70;99.90;;;;;;5048981;28;20052;-87
2022/10/20 03:58:29;;;;;;;5.28;2.80;;;5.70;99.90;;;;;;5037462;28;20080;-87
2022/10/20 04:01:05;;;;;;;5.03;3.15;;;5.60;99.90;;;;;;5051146;28;20043;-87
2022/10/20 04:03:59;;;;;;;11.30;3.38;;;5.60;99.90;;;;;;5046278;28;20104;-88
2022/10/20 04:10:35;;;;;;;5.82;4.55;;;5.50;99.90;;;;;;4966752;28;20049;-88
2022/10/20 04:16:03;;;;;;;6.25;4.05;;;5.40;99.90;;;;;;4969026;28;20081;-88
2022/10/20 04:18:56;;;;;;;;;;;;;;;;;;;;;
2022/10/20 04:21:33;;;;;;;9.90;4.95;;;5.30;99.90;;;;;;5002313;28;20543;-88
2022/10/20 04:24:51;;;;;;;7.13;5.00;;;5.30;99.90;;;;;;5033930;28;20119;-88
2022/10/20 04:30:47;;;;;;;12.60;6.50;;;5.20;99.90;;;;;;4989100;28;20038;-87
2022/10/20 04:33:16;;;;;;;6.68;5.32;;;5.20;99.90;;;;;;5046665;28;20032;-89
2022/10/20 04:35:42;;;;;;;11.10;5.38;;;5.20;99.90;;;;;;5055343;28;20480;-88
2022/10/20 04:38:08;;;;;;;17.25;6.95;;;5.10;99.90;;;;;;5055936;28;20048;-88
2022/10/20 04:40:33;;;;;;;12.13;5.88;;;5.10;99.90;;;;;;5050086;28;20616;-88
2022/10/20 04:43:00;;;;;;;6.78;5.45;;;5.10;99.90;;;;;;5044077;28;20028;-88
2022/10/20 04:45:26;;;;;;;13.52;6.85;;;5.10;99.90;;;;;;5036125;28;20456;-89
2022/10/20 04:47:52;;;;;;;13.45;6.85;;;5.10;99.90;;;;;;5049080;28;20280;-89
2022/10/20 04:50:17;;;;;;;10.43;7.15;;;5.00;99.90;;;;;;5056527;28;20385;-89
2022/10/20 04:52:50;;;;;;;14.68;7.75;;;5.00;99.90;;;;;;5056987;28;20044;-89
2022/10/20 04:55:15;;;;;;;12.27;8.10;;;5.00;99.90;;;;;;5058036;28;20052;-88
2022/10/20 04:57:41;;;;;;;17.33;7.20;;;5.00;99.90;;;;;;5056128;28;20366;-88
2022/10/20 05:00:07;;;;;;;9.95;7.00;;;5.00;99.90;;;;;;5056943;28;20037;-89
2022/10/20 05:02:33;;;;;;;15.13;7.32;;;5.00;99.90;;;;;;5050360;28;20071;-88
2022/10/20 05:04:58;;;;;;;14.43;7.10;;;5.00;99.90;;;;;;5059509;28;20029;-88
2022/10/20 05:07:24;;;;;;;11.07;7.20;;;5.00;99.90;;;;;;5049580;28;20021;-89
2022/10/20 05:09:49;;;;;;;12.30;6.82;;;4.90;99.90;;;;;;5050315;28;20528;-88
2022/10/20 05:12:15;;;;;;;11.50;7.13;;;5.00;99.90;;;;;;5053485;28;20037;-89
2022/10/20 05:14:40;;;;;;;10.45;6.65;;;4.90;99.90;;;;;;5042818;28;20025;-89
2022/10/20 05:17:06;;;;;;;13.00;7.85;;;4.80;99.90;;;;;;5052897;28;20033;-88
2022/10/20 05:19:31;;;;;;;11.45;7.55;;;4.80;99.90;;;;;;5044062;28;20120;-88
2022/10/20 05:21:57;;;;;;;16.15;7.72;;;4.80;99.90;;;;;;5048092;28;20117;-89
2022/10/20 05:24:23;;;;;;;13.18;7.95;;;4.80;99.90;;;;;;5037014;28;20021;-88
2022/10/20 05:26:55;;;;;;;14.02;7.93;;;4.80;99.90;;;;;;5043748;28;20055;-88
2022/10/20 05:29:21;;;;;;;25.67;7.75;;;4.70;99.90;;;;;;5058534;28;20599;-88
2022/10/20 05:31:52;;;;;;;13.75;7.68;;;4.80;99.90;;;;;;5050507;28;20036;-88
2022/10/20 05:34:18;;;;;;;12.70;7.03;;;4.70;99.90;;;;;;5065967;28;20028;-89
2022/10/20 05:36:44;;;;;;;12.13;7.22;;;4.70;99.90;;;;;;5051611;28;20039;-88
2022/10/20 05:39:10;;;;;;;11.88;7.45;;;4.60;99.90;;;;;;5049481;28;20103;-88
2022/10/20 05:41:36;;;;;;;10.68;6.75;;;4.60;99.90;;;;;;5052698;28;20029;-88
2022/10/20 05:44:40;;;;;;;11.82;7.50;;;4.60;99.90;;;;;;5050717;28;20051;-88
2022/10/20 05:47:06;;;;;;;13.93;7.97;;;4.50;99.90;;;;;;5014226;28;20041;-88
2022/10/20 05:49:31;;;;;;;13.48;7.32;;;4.50;99.90;;;;;;5050956;28;20041;-88
2022/10/20 05:51:59;;;;;;;23.85;8.52;;;4.50;99.90;;;;;;5055330;28;20116;-88
2022/10/20 05:54:25;;;;;;;15.40;8.43;;;4.60;99.90;;;;;;5051152;28;20021;-89
2022/10/20 05:56:57;;;;;;;15.27;8.15;;;4.50;99.90;;;;;;5040694;28;20036;-88
2022/10/20 05:59:23;;;;;;;11.05;7.93;;;4.50;99.90;;;;;;5036737;28;20104;-89
2022/10/20 06:01:48;;;;;;;17.17;9.52;;;4.50;99.90;;;;;;5049027;28;20533;-88
2022/10/20 06:04:22;;;;;;;18.52;9.80;;;4.50;99.90;;;;;;5037632;28;20387;-89
2022/10/20 06:06:57;;;;;;;12.65;8.88;;;4.50;99.90;;;;;;5029499;28;20128;-89
2022/10/20 06:09:23;;;;;;;14.85;8.82;;;4.60;99.90;;;;;;5041292;28;20029;-89
2022/10/20 06:11:55;;;;;;;16.25;8.77;;;4.60;99.90;;;;;;5038782;28;20041;-88
2022/10/20 06:14:21;;;;;;;12.27;8.68;;;4.60;99.90;;;;;;5044379;28;20048;-88
2022/10/20 06:16:56;;;;;;;15.30;8.85;;;4.60;99.90;;;;;;5040155;28;20405;-88
2022/10/20 06:19:23;;;;;;;15.07;10.27;;;4.60;99.90;;;;;;5042242;28;20067;-88
2022/10/20 06:21:55;;;;;;;13.95;9.18;;;4.70;99.90;;;;;;5041247;28;20044;-89
2022/10/20 06:24:20;;;;;;;13.27;9.90;;;4.70;99.90;;;;;;5035702;28;20021;-89
2022/10/20 06:26:50;;;;;;;9.80;7.82;;;4.70;99.90;;;;;;5049779;28;20075;-89
2022/10/20 06:29:18;;;;;;;16.17;9.73;;;4.80;99.90;;;;;;5060008;28;20473;-89
2022/10/20 06:31:47;;;;;;;18.88;8.90;;;4.80;99.90;;;;;;5049913;28;20452;-88
2022/10/20 06:34:15;;;;;;;18.38;10.00;;;4.80;99.90;;;;;;5060776;28;20038;-89
2022/10/20 06:36:43;;;;;;;13.95;10.55;;;4.90;99.90;;;;;;5045398;28;20053;-88
2022/10/20 06:39:16;;;;;;;15.93;11.35;;;5.00;99.90;;;;;;5052535;28;20076;-89
2022/10/20 06:41:45;;;;;;;23.83;13.07;;;5.10;99.90;;;;;;5054111;28;20032;-89
2022/10/20 06:44:11;;;;;;;21.27;12.93;;;5.20;99.90;;;;;;5052799;28;20033;-89
2022/10/20 06:46:37;;;;;;;22.42;13.38;;;5.20;99.90;;;;;;5049039;28;20102;-88
2022/10/20 06:49:05;;;;;;;21.25;13.02;;;5.30;99.90;;;;;;5045895;28;20040;-88
2022/10/20 06:51:33;;;;;;;23.35;14.63;;;5.30;99.90;;;;;;5048497;28;20029;-88
2022/10/20 06:53:59;;;;;;;17.90;12.00;;;5.50;99.90;;;;;;5041830;28;20035;-89
2022/10/20 06:56:27;;;;;;;28.05;13.65;;;5.50;99.90;;;;;;5031191;28;20022;-89
2022/10/20 06:59:03;;;;;;;16.38;12.40;;;5.60;99.90;;;;;;5030854;28;20112;-89
2022/10/20 07:01:31;;;;;;;21.17;13.02;;;5.60;99.90;;;;;;5033158;28;20025;-88
2022/10/20 07:04:04;;;;;;;18.00;12.23;;;5.60;99.90;;;;;;5043348;28;20025;-89
2022/10/20 07:06:33;;;;;;;24.15;11.90;;;5.80;99.90;;;;;;5047790;28;20028;-89
2022/10/20 07:08:59;;;;;;;16.50;10.57;;;5.80;99.90;;;;;;5049606;28;20056;-89
2022/10/20 07:11:27;;;;;;;17.70;11.50;;;5.90;99.90;;;;;;5021015;28;20057;-88
2022/10/20 07:14:00;;;;;;;17.23;11.23;;;6.00;99.90;;;;;;5036602;28;20104;-89
2022/10/20 07:16:28;;;;;;;16.45;11.32;;;6.00;99.90;;;;;;5052060;28;20029;-90
2022/10/20 07:18:56;;;;;;;17.23;9.98;;;6.10;99.90;;;;;;5031077;28;20029;-88
2022/10/20 07:21:23;;;;;;;16.73;10.65;;;6.20;99.90;;;;;;5045345;28;20029;-88
2022/10/20 07:23:50;;;;;;;17.27;9.52;;;6.20;99.90;;;;;;5039505;28;20374;-89
2022/10/20 07:26:21;;;;;;;16.98;11.20;;;6.20;99.90;;;;;;5045922;28;20013;-89
2022/10/20 07:28:49;;;;;;;16.40;9.98;;;6.20;99.90;;;;;;5053914;28;20083;-88
2022/10/20 07:31:21;;;;;;;15.05;11.15;;;6.20;99.90;;;;;;5060533;28;20025;-89
2022/10/20 07:33:47;;;;;;;16.00;10.93;;;6.10;99.90;;;;;;5048573;28;20078;-89
2022/10/20 07:36:32;;;;;;;17.83;10.75;;;6.10;99.90;;;;;;5047533;28;20030;-89
2022/10/20 07:39:00;;;;;;;13.60;10.05;;;6.10;99.90;;;;;;5030596;28;20053;-89
2022/10/20 07:41:26;;;;;;;13.02;8.70;;;6.10;99.90;;;;;;5036546;28;20072;-89
2022/10/20 07:43:56;;;;;;;16.85;11.10;;;6.00;99.90;;;;;;5053115;28;20049;-89
2022/10/20 07:46:22;;;;;;;15.93;10.73;;;6.10;99.90;;;;;;5050740;28;20033;-89
2022/10/20 07:48:48;;;;;;;14.45;9.80;;;6.10;99.90;;;;;;5050372;28;20048;-89
2022/10/20 07:51:16;;;;;;;14.65;10.60;;;6.20;99.90;;;;;;5049543;28;20458;-89
2022/10/20 07:53:42;;;;;;;16.35;10.02;;;6.20;99.90;;;;;;5042679;28;20029;-89
2022/10/20 07:56:08;;;;;;;16.55;9.35;;;6.40;99.90;;;;;;5037475;28;20564;-89
2022/10/20 07:58:34;;;;;;;13.55;8.55;;;6.50;99.90;;;;;;5047854;28;20377;-89
2022/10/20 08:00:59;;;;;;;14.27;8.90;;;6.60;99.90;;;;;;5048309;28;20496;-88
2022/10/20 08:03:25;;;;;;;18.05;9.50;;;6.70;99.90;;;;;;5046277;28;20025;-89
2022/10/20 08:05:53;;;;;;;15.90;8.25;;;6.80;99.90;;;;;;5038921;28;20025;-89
2022/10/20 08:08:19;;;;;;;21.58;8.93;;;7.00;99.90;;;;;;5052759;28;20035;-88
2022/10/20 08:10:44;;;;;;;19.63;8.18;;;7.10;99.90;;;;;;5057661;28;20021;-89
2022/10/20 08:13:10;;;;;;;11.75;8.15;;;7.20;99.90;;;;;;5043872;28;20070;-90
2022/10/20 08:15:36;;;;;;;10.32;7.80;;;7.30;99.90;;;;;;5050481;28;20024;-90
2022/10/20 08:18:01;;;;;;;10.25;6.22;;;7.40;99.90;;;;;;5045407;28;20029;-89
2022/10/20 08:20:27;;;;;;;13.35;6.65;;;7.40;99.90;;;;;;5048235;28;20130;-89
2022/10/20 08:23:01;;;;;;;14.95;7.75;;;7.50;99.90;;;;;;5045310;28;20033;-87
2022/10/20 08:25:27;;;;;;;11.45;6.88;;;7.50;99.90;;;;;;5025782;28;20028;-87
2022/10/20 08:27:56;;;;;;;9.27;7.05;;;7.60;99.90;;;;;;5049408;28;20047;-86
2022/10/20 08:30:21;;;;;;;12.82;7.22;;;7.70;99.90;;;;;;5053185;28;20045;-87
2022/10/20 08:32:59;;;;;;;8.90;6.82;;;7.80;99.90;;;;;;5042573;28;20106;-87
2022/10/20 08:35:24;;;;;;;13.23;5.72;;;7.80;99.90;;;;;;5052152;28;20029;-85
2022/10/20 08:37:50;;;;;;;16.52;7.05;;;7.90;99.90;;;;;;5041118;28;20032;-87
2022/10/20 08:40:23;;;;;;;17.25;7.43;;;8.00;99.90;;;;;;5042740;28;20040;-86
2022/10/20 08:42:49;;;;;;;14.55;7.43;;;8.00;99.90;;;;;;5045004;28;20401;-86
2022/10/20 08:45:18;;;;;;;15.50;8.18;;;8.10;99.90;;;;;;5048176;28;20044;-86
2022/10/20 08:47:46;;;;;;;12.63;6.78;;;8.20;99.90;;;;;;5040991;28;20393;-87
2022/10/20 08:50:15;;;;;;;14.07;7.10;;;8.30;99.90;;;;;;5042139;28;20033;-86
2022/10/20 08:52:44;;;;;;;9.73;5.93;;;8.30;99.90;;;;;;5046559;28;20029;-87
2022/10/20 08:55:19;;;;;;;16.77;6.32;;;8.40;99.90;;;;;;5042486;28;20424;-86
2022/10/20 08:57:48;;;;;;;13.23;7.32;;;8.40;99.90;;;;;;5034262;28;20596;-87
2022/10/20 09:00:20;;;;;;;13.63;7.38;;;8.50;99.90;;;;;;5050932;28;20504;-87
2022/10/20 09:02:47;;;;;;;15.27;7.10;;;8.50;99.90;;;;;;5046361;28;20539;-87
2022/10/20 09:05:15;;;;;;;13.85;7.05;;;8.60;99.90;;;;;;5042557;28;20022;-87
2022/10/20 09:07:41;;;;;;;14.05;6.40;;;8.70;99.90;;;;;;5036939;28;20029;-88
2022/10/20 09:10:34;;;;;;;13.20;7.00;;;8.90;99.90;;;;;;5041155;28;20033;-88
2022/10/20 09:13:13;;;;;;;14.85;6.60;;;8.90;99.90;;;;;;5034114;28;20536;-87
2022/10/20 09:15:39;;;;;;;8.35;4.97;;;9.00;99.90;;;;;;5048228;28;20032;-88
2022/10/20 09:18:09;;;;;;;8.02;4.97;;;9.10;99.90;;;;;;5040972;28;20028;-87
2022/10/20 09:20:54;;;;;;;11.13;5.53;;;9.20;99.90;;;;;;5041265;28;20029;-88
2022/10/20 09:23:44;;;;;;;8.02;5.70;;;9.30;99.90;;;;;;5040141;28;20082;-91
2022/10/20 09:26:19;;;;;;;9.48;5.10;;;9.40;99.90;;;;;;5042240;28;20036;-87
2022/10/20 09:29:06;;;;;;;8.02;4.90;;;9.40;99.90;;;;;;5040169;28;20044;-89
2022/10/20 09:31:39;;;;;;;10.07;5.82;;;9.50;99.90;;;;;;5043533;28;20034;-87
2022/10/20 09:34:33;;;;;;;10.73;5.55;;;9.60;99.90;;;;;;5042341;28;20037;-88
2022/10/20 09:37:08;;;;;;;9.05;4.50;;;9.60;99.90;;;;;;5046777;28;20036;-88
2022/10/20 09:39:55;;;;;;;6.85;4.35;;;9.80;99.90;;;;;;5064857;28;20064;-90
2022/10/20 09:42:33;;;;;;;9.40;4.22;;;9.90;99.90;;;;;;5049177;28;20033;-88
2022/10/20 09:45:11;;;;;;;8.65;4.28;;;9.90;99.90;;;;;;5042969;28;20060;-88
2022/10/20 09:47:42;;;;;;;10.23;3.83;;;9.90;99.90;;;;;;5045183;28;20040;-89
2022/10/20 09:50:18;;;;;;;9.55;3.78;;;10.00;99.90;;;;;;5055343;28;20040;-88
2022/10/20 09:52:46;;;;;;;;;;;10.20;99.90;;;;;;5061276;28;20032;-88
2022/10/20 09:55:33;;;;;;;6.72;3.65;;;10.30;99.90;;;;;;5037435;28;19909;-89
2022/10/20 09:58:02;;;;;;;5.25;2.92;;;10.30;99.90;;;;;;5046819;28;20089;-89
2022/10/20 10:00:38;;;;;;;6.00;3.30;;;10.40;99.90;;;;;;5053533;28;20123;-89
2022/10/20 10:03:22;;;;;;;6.97;2.72;;;10.40;99.90;;;;;;5054793;28;20433;-89
2022/10/20 10:06:17;;;;;;;5.72;2.60;;;10.50;99.90;;;;;;5040070;28;20040;-88
2022/10/20 10:08:45;;;;;;;7.50;2.85;;;10.60;99.90;;;;;;5055435;28;20041;-88
2022/10/20 10:11:16;;;;;;;8.20;2.80;;;10.70;99.90;;;;;;5055222;28;20418;-88
2022/10/20 10:13:45;;;;;;;9.82;2.83;;;10.70;99.90;;;;;;5049955;28;20056;-88
2022/10/20 10:16:18;;;;;;;8.20;4.15;;;10.70;99.90;;;;;;5048488;28;20029;-88
2022/10/20 10:18:46;;;;;;;5.40;2.83;;;10.80;99.90;;;;;;5043679;28;20040;-88
2022/10/20 10:21:16;;;;;;;4.38;2.78;;;10.80;99.90;;;;;;5056797;28;20415;-90
2022/10/20 10:23:54;;;;;;;9.25;4.05;;;10.90;99.90;;;;;;5033944;28;20503;-89
2022/10/20 10:26:41;;;;;;;8.50;3.67;;;11.00;99.90;;;;;;5053203;28;20162;-88
2022/10/20 10:29:23;;;;;;;4.63;3.00;;;11.10;99.90;;;;;;5051512;28;20040;-88
2022/10/20 10:31:56;;;;;;;7.60;3.53;;;11.20;99.90;;;;;;5041620;28;20037;-88
2022/10/20 10:34:42;;;;;;;6.82;3.20;;;11.30;99.90;;;;;;5043929;28;20034;-91
2022/10/20 10:37:16;;;;;;;4.32;3.03;;;11.40;99.90;;;;;;5042363;28;20029;-92
2022/10/20 10:39:42;;;;;;;4.32;2.70;;;11.50;99.90;;;;;;5051699;28;20076;-89
2022/10/20 10:42:11;;;;;;;7.50;4.50;;;11.60;99.90;;;;;;5041930;28;20029;-88
2022/10/20 10:45:10;;;;;;;6.65;2.33;;;11.60;99.90;;;;;;5050233;28;20107;-88
2022/10/20 10:48:13;;;;;;;4.13;3.10;;;11.60;99.90;;;;;;5054443;28;20135;-89
2022/10/20 10:50:53;;;;;;;10.65;2.47;;;11.70;99.90;;;;;;5050533;28;20037;-89
2022/10/20 10:53:51;;;;;;;4.60;2.60;;;11.80;99.90;;;;;;5053441;28;20435;-89
2022/10/20 10:56:37;;;;;;;2.38;2.00;;;11.80;99.90;;;;;;5057178;28;20039;-88
2022/10/20 10:59:28;;;;;;;2.85;1.88;;;11.90;99.90;;;;;;5050965;28;20029;-88
2022/10/20 11:02:15;;;;;;;2.97;1.80;;;11.90;99.90;;;;;;5054866;28;20048;-89
2022/10/20 11:05:20;;;;;;;6.68;1.80;;;11.90;99.90;;;;;;5051906;28;20025;-89
2022/10/20 11:08:11;;;;;;;4.07;1.95;;;11.90;99.90;;;;;;5050992;28;20029;-88
2022/10/20 11:11:00;;;;;;;3.50;2.25;;;11.90;99.90;;;;;;5050725;28;20041;-89
2022/10/20 11:13:55;;;;;;;6.88;3.00;;;12.00;99.90;;;;;;5050011;28;20040;-90
2022/10/20 11:16:36;;;;;;;10.63;3.70;;;12.10;99.90;;;;;;5052177;28;20462;-87
2022/10/20 11:19:11;;;;;;;6.63;3.72;;;12.10;99.90;;;;;;5058296;28;20039;-89
2022/10/20 11:22:10;;;;;;;5.10;2.60;;;12.30;99.90;;;;;;5059698;28;20070;-91
2022/10/20 11:24:44;;;;;;;8.82;3.65;;;12.40;99.90;;;;;;5049664;28;20029;-89
2022/10/20 11:27:14;;;;;;;4.13;2.22;;;12.40;99.90;;;;;;5059515;28;20029;-90
2022/10/20 11:29:46;;;;;;;4.40;1.58;;;12.50;99.90;;;;;;5052558;28;20437;-90
2022/10/20 11:32:33;;;;;;;8.55;1.80;;;12.60;99.90;;;;;;5052519;28;20268;-89
2022/10/20 11:35:20;;;;;;;6.30;2.42;;;12.70;99.90;;;;;;5030116;28;20516;-93
2022/10/20 11:38:04;;;;;;;2.92;1.80;;;12.80;99.90;;;;;;5050095;28;20397;-89
2022/10/20 11:40:38;;;;;;;3.50;2.05;;;12.90;99.90;;;;;;5007620;28;20061;-87
2022/10/20 11:43:13;;;;;;;3.97;2.00;;;13.00;99.90;;;;;;5019342;28;20112;-91
2022/10/20 11:46:02;;;;;;;4.57;2.22;;;13.00;99.90;;;;;;5017337;28;20038;-90
2022/10/20 11:48:46;;;;;;;4.55;2.70;;;13.10;99.90;;;;;;5015750;28;20042;-90
2022/10/20 11:51:30;;;;;;;5.03;2.20;;;13.10;99.90;;;;;;5010927;28;20109;-90
2022/10/20 11:54:33;;;;;;;3.15;2.22;;;13.10;99.90;;;;;;5009044;28;20029;-88
2022/10/20 11:57:20;;;;;;;5.28;2.28;;;13.10;99.90;;;;;;5007571;28;20432;-89
2022/10/20 12:00:05;;;;;;;3.85;2.20;;;13.10;99.90;;;;;;5007698;28;20069;-87
2022/10/20 12:02:49;;;;;;;6.63;2.05;;;13.10;99.90;;;;;;5009105;28;20038;-90
2022/10/20 12:05:42;;;;;;;14.75;2.20;;;13.20;99.90;;;;;;5009707;28;20382;-89
2022/10/20 12:08:23;;;;;;;9.93;2.40;;;13.30;99.90;;;;;;5005879;28;20029;-87
2022/10/20 12:11:13;;;;;;;9.48;2.58;;;13.30;99.90;;;;;;5011070;28;20034;-91
2022/10/20 12:13:59;;;;;;;7.65;2.45;;;13.40;99.90;;;;;;5007580;28;20406;-89
2022/10/20 12:16:50;;;;;;;3.67;2.50;;;13.50;99.90;;;;;;5009332;28;20038;-89
2022/10/20 12:19:20;;;;;;;5.05;2.25;;;13.50;99.90;;;;;;5005938;28;20025;-88
2022/10/20 12:21:53;;;;;;;4.20;2.20;;;13.60;99.90;;;;;;5012865;28;20033;-89
2022/10/20 12:24:33;;;;;;;7.97;2.33;;;13.70;99.90;;;;;;5004752;28;20470;-91
2022/10/20 12:27:08;;;;;;;6.72;2.10;;;13.60;99.90;;;;;;5006266;28;20364;-90
2022/10/20 12:29:33;;;;;;;2.78;1.80;;;13.70;99.90;;;;;;5003580;28;20109;-91
2022/10/20 12:32:22;;;;;;;11.15;3.42;;;13.70;99.90;;;;;;5003234;28;20125;-90
2022/10/20 12:34:51;;;;;;;7.22;2.72;;;13.70;99.90;;;;;;4990215;28;20030;-94
2022/10/20 12:37:25;;;;;;;5.63;2.30;;;13.70;99.90;;;;;;5001308;28;20034;-86
2022/10/20 12:39:54;;;;;;;7.82;2.85;;;13.80;99.90;;;;;;5036539;28;20051;-90
2022/10/20 12:42:25;;;;;;;5.32;2.90;;;13.80;99.90;;;;;;5048854;28;20036;-89
2022/10/20 12:44:52;;;;;;;7.70;3.28;;;13.80;99.90;;;;;;5061795;28;20025;-88
2022/10/20 12:47:23;;;;;;;7.18;2.92;;;13.80;99.90;;;;;;5050268;28;20025;-90
2022/10/20 12:50:07;;;;;;;6.40;3.03;;;13.80;99.90;;;;;;5051427;28;20063;-90
2022/10/20 12:52:36;;;;;;;4.72;2.58;;;13.80;99.90;;;;;;5050674;28;20032;-92
2022/10/20 12:55:04;;;;;;;7.00;3.97;;;13.90;99.90;;;;;;5054062;28;20033;-89
2022/10/20 12:57:40;;;;;;;7.88;2.88;;;13.90;99.90;;;;;;5052560;28;20025;-90
2022/10/20 13:00:26;;;;;;;2.85;1.92;;;13.90;99.90;;;;;;5051761;28;20031;-90
2022/10/20 13:02:54;;;;;;;6.35;2.90;;;13.80;99.90;;;;;;5051988;28;20119;-92
2022/10/20 13:05:24;;;;;;;5.43;2.40;;;13.80;99.90;;;;;;5052081;28;20025;-90
2022/10/20 13:07:52;;;;;;;3.95;2.70;;;13.80;99.90;;;;;;5049607;28;20056;-91
2022/10/20 13:10:30;;;;;;;6.30;2.80;;;13.70;99.90;;;;;;5049894;28;20045;-91
2022/10/20 13:13:02;;;;;;;10.68;2.90;;;13.70;99.90;;;;;;5056110;28;20052;-88
2022/10/20 13:15:34;;;;;;;8.63;2.55;;;13.70;99.90;;;;;;5057320;28;20029;-90
2022/10/20 13:17:59;;;;;;;8.43;2.70;;;13.60;99.90;;;;;;5058007;28;20504;-90
2022/10/20 13:20:28;;;;;;;6.10;2.72;;;13.60;99.90;;;;;;5052610;28;20037;-91
2022/10/20 13:22:55;;;;;;;3.45;2.70;;;13.60;99.90;;;;;;5051498;28;20029;-91
2022/10/20 13:25:35;;;;;;;5.05;2.53;;;13.60;99.90;;;;;;5052889;28;20165;-90
2022/10/20 13:28:05;;;;;;;12.70;3.08;;;13.60;99.90;;;;;;5057785;28;20041;-91
2022/10/20 13:30:33;;;;;;;6.20;3.00;;;13.70;99.90;;;;;;5059700;28;20032;-90
2022/10/20 13:33:17;;;;;;;15.15;4.18;;;13.60;99.90;;;;;;5052838;28;20401;-90